De Forest, Wisconsin
Current Conditions -  °F | °C
As of 5:53 PM on Sunday 21 Dec 2014 (Local Time) from KMSN Reporting Station
Overcast Overcast  
Wind Chill: 26°   Ceiling: 2300
Heat Index: 36°   Visibility: 8mi
Dew Point: 31°   Wind: 16mph
Humidity: 82%   Direction: 170°S
Pressure: 29.97"   Gusts: NA
Location:  43.25°N, 89.34°W
Report Text: KMSN 212353Z 17014KT 8SM FEW014 OVC023 02/M01 A2997 RMK AO2 SLP157 T00221006 10022 20011 56005
Loading
Personal Weather Stations






























Interactive Weather Map New forecast layout! Learn more

10-Day Weather Forecast

Advertisements
Track Severe Weather on mobile